Portada
METAR-TAF:

METAR-TAF

Aeroports :

Nakhon Si Thammarat, Tailàndia

latitud: 8-32-22N, longitud: 99-56-41E, altitud: 4 m

Observació

L'informe es va fer fa 25 minuts, a les 07:00 UTC
Vent 11 kt del Est, variant entre Est/Nord-Est i Est/Sud-Est
Temperatura 33°C
Humitat 59%
Pressió 1010 hPa
Visibilitat 10 km o més
Núvols disperses a una alçada de 1800 ft

METAR: VTSF 280700Z 10011KT 060V120 9999 SCT018 33/24 Q1010 NOSIG

Hora: 14:25 (07:25 UTC)

Pronòstic

L'informe es va fer fa 2 hores i 25 minuts, a les 05:00 UTC
Pronòstic vàlid del 28 a les 06 UTC al 29 a les 06 UTC
Vent 8 kt del Est/Sud-Est
Visibilitat 10 km o més
Escasses núvols a una alçada de 2000 ft

TAF: VTSF 280500Z 2806/2906 12008KT 9999 FEW020

Observacions i pronòstics meteorològics de més de 4000 aeroports (METAR i TAF).

Les estacions disponibles són els punts grocs i vermells al mapa.

Posi el ratolí al punt desitjat per veure el nom de l'estació.

Feu clic per veure les observacions i els pronòstics meteorològics.

Per canviar el mapa: feu clic els botons verds amb una creu de color negre per apropar; al botó verd amb un guió per allunyar la imatge; o en les fletxes verdes per a mapes adjacents.


METAR-TAF: